Time;durP1;ratioP1;P1;durP2;ratioP2;P2;SDS_P1;SDS_P2;PMS_P1;PMS_P2;Temp;Humidity;BMP_temperature;BMP_pressure;BME280_temperature;BME280_humidity;BME280_pressure;Samples;Min_cycle;Max_cycle;Signal;HPM_P1;HPM_P2
2021/12/28 00:01:08;;;;;;;18.25;4.22;;;14.60;99.90;;;;;;5015595;28;20029;-74
2021/12/28 00:03:36;;;;;;;16.10;3.60;;;14.50;99.90;;;;;;5015777;28;20100;-73
2021/12/28 00:06:03;;;;;;;16.05;3.60;;;14.60;99.90;;;;;;5015261;28;20093;-73
2021/12/28 00:08:29;;;;;;;19.75;4.18;;;14.50;99.90;;;;;;5015176;28;20121;-73
2021/12/28 00:10:56;;;;;;;17.70;3.88;;;14.60;99.90;;;;;;4997253;28;20033;-73
2021/12/28 00:13:23;;;;;;;15.52;3.80;;;14.60;99.90;;;;;;5015160;28;20034;-74
2021/12/28 00:18:21;;;;;;;16.60;4.03;;;14.60;99.90;;;;;;5014957;28;20498;-73
2021/12/28 00:20:52;;;;;;;20.42;4.15;;;14.60;99.90;;;;;;5015106;28;20049;-74
2021/12/28 00:23:21;;;;;;;30.80;4.88;;;14.60;99.90;;;;;;5014807;28;20076;-73
2021/12/28 00:25:49;;;;;;;25.58;4.35;;;14.60;99.90;;;;;;4997091;28;20034;-73
2021/12/28 00:28:16;;;;;;;25.50;5.00;;;14.60;99.90;;;;;;5014866;28;20022;-73
2021/12/28 00:30:42;;;;;;;24.70;5.40;;;14.60;99.90;;;;;;5015237;28;20032;-73
2021/12/28 00:33:09;;;;;;;29.75;5.15;;;14.60;99.90;;;;;;4996911;28;20057;-72
2021/12/28 00:35:38;;;;;;;40.28;6.20;;;14.60;99.90;;;;;;5014966;28;20032;-74
2021/12/28 00:38:05;;;;;;;36.90;6.15;;;14.60;99.90;;;;;;5015006;28;20094;-73
2021/12/28 00:40:32;;;;;;;38.72;7.10;;;14.60;99.90;;;;;;5014262;28;20026;-73
2021/12/28 00:42:58;;;;;;;39.65;6.40;;;14.70;99.90;;;;;;5014657;28;20041;-73
2021/12/28 00:45:26;;;;;;;38.25;5.65;;;14.70;99.90;;;;;;5015031;28;20037;-73
2021/12/28 00:47:52;;;;;;;45.58;6.28;;;14.60;99.90;;;;;;5014771;28;20025;-74
2021/12/28 00:50:19;;;;;;;32.87;5.80;;;14.60;99.90;;;;;;5014292;28;20497;-74
2021/12/28 00:52:46;;;;;;;41.15;6.55;;;14.60;99.90;;;;;;5013237;28;20304;-73
2021/12/28 00:55:12;;;;;;;;;;;14.60;99.90;;;;;;5015284;28;20040;-73
2021/12/28 00:57:39;;;;;;;39.20;5.93;;;14.60;99.90;;;;;;5014607;28;20044;-73
2021/12/28 01:00:08;;;;;;;36.20;5.88;;;14.60;99.90;;;;;;5014374;28;20056;-73
2021/12/28 01:02:35;;;;;;;38.75;5.85;;;14.60;99.90;;;;;;5014705;28;20033;-73
2021/12/28 01:05:01;;;;;;;28.98;5.38;;;14.60;99.90;;;;;;5014151;28;20033;-73
2021/12/28 01:07:28;;;;;;;40.92;6.95;;;14.60;99.90;;;;;;5014555;28;20030;-73
2021/12/28 01:09:54;;;;;;;39.63;6.68;;;14.60;99.90;;;;;;5014544;28;20026;-73
2021/12/28 01:12:20;;;;;;;40.83;6.88;;;14.60;99.90;;;;;;5014363;28;20038;-73
2021/12/28 01:14:46;;;;;;;44.33;6.70;;;14.50;99.90;;;;;;5014260;28;20097;-73
2021/12/28 01:17:12;;;;;;;52.93;7.63;;;14.60;99.90;;;;;;5014285;28;20709;-73
2021/12/28 01:19:38;;;;;;;44.50;7.50;;;14.60;99.90;;;;;;5014140;28;20538;-72
2021/12/28 01:22:05;;;;;;;40.58;6.63;;;14.60;99.90;;;;;;5013546;28;20288;-73
2021/12/28 01:24:32;;;;;;;42.03;6.60;;;14.60;99.90;;;;;;5013456;28;20022;-73
2021/12/28 01:26:59;;;;;;;42.67;7.25;;;14.60;99.90;;;;;;5014074;28;20358;-73
2021/12/28 01:29:25;;;;;;;43.67;6.82;;;14.60;99.90;;;;;;5013821;28;20017;-73
2021/12/28 01:31:51;;;;;;;53.45;7.25;;;14.50;99.90;;;;;;5013618;28;20045;-73
2021/12/28 01:34:25;;;;;;;42.00;7.07;;;14.50;99.90;;;;;;5014070;28;20022;-71
2021/12/28 01:37:41;;;;;;;55.47;7.57;;;14.50;99.90;;;;;;5014162;28;20033;-71
2021/12/28 01:40:11;;;;;;;46.20;7.40;;;14.50;99.90;;;;;;5013274;28;20022;-73
2021/12/28 01:43:17;;;;;;;42.92;5.93;;;14.50;99.90;;;;;;5013510;28;20030;-73
2021/12/28 01:46:20;;;;;;;41.80;6.20;;;14.40;99.90;;;;;;4936639;29;20028;-73
2021/12/28 01:48:46;;;;;;;38.45;5.97;;;14.40;99.90;;;;;;4952707;29;20133;-74
2021/12/28 01:51:17;;;;;;;43.15;5.55;;;14.40;99.90;;;;;;4953000;29;20037;-73
2021/12/28 01:53:45;;;;;;;42.08;5.90;;;14.40;99.90;;;;;;4953077;29;20031;-73
2021/12/28 01:56:17;;;;;;;48.72;6.82;;;14.40;99.90;;;;;;4952825;29;20078;-73
2021/12/28 01:58:44;;;;;;;55.63;8.77;;;14.40;99.90;;;;;;4952573;29;20035;-73
2021/12/28 02:01:10;;;;;;;43.05;5.93;;;14.40;99.90;;;;;;4952540;29;20027;-74
2021/12/28 02:03:40;;;;;;;46.42;6.35;;;14.40;99.90;;;;;;4952951;28;20071;-73
2021/12/28 02:06:07;;;;;;;40.88;7.18;;;14.40;99.90;;;;;;4952943;29;20118;-73
2021/12/28 02:08:34;;;;;;;37.72;6.22;;;14.40;99.90;;;;;;4952887;28;20035;-73
2021/12/28 02:11:00;;;;;;;46.00;6.28;;;14.40;99.90;;;;;;4952739;29;20066;-74
2021/12/28 02:13:27;;;;;;;38.25;5.93;;;14.40;99.90;;;;;;4952926;28;20587;-73
2021/12/28 02:15:56;;;;;;;52.00;6.53;;;14.30;99.90;;;;;;4969342;28;20077;-74
2021/12/28 02:18:24;;;;;;;33.33;5.53;;;14.30;99.90;;;;;;5012790;28;20034;-73
2021/12/28 02:20:52;;;;;;;43.88;7.18;;;14.30;99.90;;;;;;5013086;28;20053;-73
2021/12/28 02:23:19;;;;;;;48.40;6.65;;;14.30;99.90;;;;;;5012597;28;20038;-73
2021/12/28 02:25:45;;;;;;;32.70;6.03;;;14.20;99.90;;;;;;5012723;28;20034;-73
2021/12/28 02:28:13;;;;;;;43.70;6.88;;;14.30;99.90;;;;;;5012704;28;20026;-73
2021/12/28 02:30:42;;;;;;;50.85;7.10;;;14.20;99.90;;;;;;5013002;28;20036;-73
2021/12/28 02:33:08;;;;;;;47.40;7.32;;;14.20;99.90;;;;;;5012934;28;20033;-73
2021/12/28 02:35:35;;;;;;;45.70;7.15;;;14.20;99.90;;;;;;5012686;28;20034;-73
2021/12/28 02:38:01;;;;;;;51.95;6.35;;;14.20;99.90;;;;;;5012651;28;20080;-74
2021/12/28 02:40:29;;;;;;;45.67;7.25;;;14.20;99.90;;;;;;5012490;28;20474;-73
2021/12/28 02:42:58;;;;;;;40.92;5.72;;;14.30;99.90;;;;;;5012910;28;20029;-73
2021/12/28 02:45:29;;;;;;;49.03;6.68;;;14.20;99.90;;;;;;5012916;28;20030;-73
2021/12/28 02:47:56;;;;;;;44.45;5.55;;;14.30;99.90;;;;;;5012436;28;20030;-73
2021/12/28 02:50:24;;;;;;;40.63;5.88;;;14.30;99.90;;;;;;5012479;28;20478;-73
2021/12/28 02:52:51;;;;;;;40.85;6.82;;;14.30;99.90;;;;;;5012255;28;20046;-74
2021/12/28 02:55:19;;;;;;;31.88;5.13;;;14.20;99.90;;;;;;5012331;28;20026;-74
2021/12/28 02:57:52;;;;;;;36.88;5.97;;;14.20;99.90;;;;;;5012157;28;20030;-73
2021/12/28 03:00:55;;;;;;;38.83;5.55;;;14.20;99.90;;;;;;5012573;28;20434;-73
2021/12/28 03:03:24;;;;;;;40.85;5.93;;;14.20;99.90;;;;;;4951718;29;20047;-73
2021/12/28 03:06:21;;;;;;;47.80;6.82;;;14.20;99.90;;;;;;4951711;28;20479;-74
2021/12/28 03:08:54;;;;;;;32.97;5.07;;;14.20;99.90;;;;;;4952006;29;20027;-73
2021/12/28 03:11:22;;;;;;;35.28;5.78;;;14.10;99.90;;;;;;4951913;29;20035;-72
2021/12/28 03:13:51;;;;;;;38.70;5.10;;;14.10;99.90;;;;;;4951553;29;20615;-73
2021/12/28 03:16:18;;;;;;;39.00;6.30;;;14.10;99.90;;;;;;4951611;29;20039;-74
2021/12/28 03:18:45;;;;;;;32.40;5.28;;;14.00;99.90;;;;;;4952080;28;20094;-73
2021/12/28 03:21:13;;;;;;;32.05;4.57;;;14.00;99.90;;;;;;4936005;29;20031;-73
2021/12/28 03:23:40;;;;;;;33.42;4.90;;;13.90;99.90;;;;;;4951313;29;20063;-73
2021/12/28 03:26:08;;;;;;;28.77;4.18;;;13.90;99.90;;;;;;4951440;28;20565;-73
2021/12/28 03:28:39;;;;;;;30.17;4.80;;;13.80;99.90;;;;;;4951313;29;20031;-73
2021/12/28 03:31:07;;;;;;;30.30;4.20;;;13.90;99.90;;;;;;4951440;29;20484;-74
2021/12/28 03:33:36;;;;;;;33.05;4.90;;;13.80;99.90;;;;;;4951229;29;20047;-73
2021/12/28 03:36:04;;;;;;;38.53;4.90;;;13.80;99.90;;;;;;4951413;29;20038;-73
2021/12/28 03:38:30;;;;;;;30.58;4.78;;;13.80;99.90;;;;;;4973303;28;20034;-73
2021/12/28 03:40:56;;;;;;;40.08;5.55;;;13.70;99.90;;;;;;5011858;28;20026;-73
2021/12/28 03:43:22;;;;;;;33.15;4.70;;;13.70;99.90;;;;;;4994408;28;20332;-74
2021/12/28 03:45:49;;;;;;;31.38;4.90;;;13.70;99.90;;;;;;5011802;28;20091;-72
2021/12/28 03:48:16;;;;;;;30.33;4.07;;;13.70;99.90;;;;;;4994059;28;20080;-73
2021/12/28 03:50:42;;;;;;;27.80;4.47;;;13.70;99.90;;;;;;5012144;28;20022;-73
2021/12/28 03:53:09;;;;;;;24.48;3.78;;;13.70;99.90;;;;;;5011564;28;20089;-73
2021/12/28 03:55:35;;;;;;;26.40;4.47;;;13.70;99.90;;;;;;5011610;28;20116;-73
2021/12/28 03:58:02;;;;;;;30.38;3.80;;;13.70;99.90;;;;;;5011836;28;20029;-73
2021/12/28 04:00:34;;;;;;;27.77;4.22;;;13.70;99.90;;;;;;5011909;28;20026;-73
2021/12/28 04:03:00;;;;;;;25.60;3.78;;;13.70;99.90;;;;;;5011857;28;20080;-73
2021/12/28 04:05:26;;;;;;;26.30;3.73;;;13.60;99.90;;;;;;5011575;28;20109;-72
2021/12/28 04:07:52;;;;;;;27.88;3.90;;;13.60;99.90;;;;;;5012003;28;20640;-73
2021/12/28 04:10:27;;;;;;;27.17;4.47;;;13.60;99.90;;;;;;5011546;28;20478;-72
2021/12/28 04:12:53;;;;;;;23.05;3.78;;;13.60;99.90;;;;;;5012297;28;20363;-73
2021/12/28 04:15:19;;;;;;;30.23;4.67;;;13.60;99.90;;;;;;5011600;28;20128;-73
2021/12/28 04:17:46;;;;;;;30.13;3.90;;;13.50;99.90;;;;;;5011637;28;20239;-73
2021/12/28 04:20:16;;;;;;;30.52;4.68;;;13.50;99.90;;;;;;5011854;28;20268;-73
2021/12/28 04:22:43;;;;;;;28.52;4.22;;;13.40;99.90;;;;;;5011501;28;20077;-73
2021/12/28 04:25:11;;;;;;;21.58;3.28;;;13.40;99.90;;;;;;5011264;28;20021;-73
2021/12/28 04:27:37;;;;;;;26.27;3.47;;;13.40;99.90;;;;;;5012759;28;20057;-73
2021/12/28 04:30:07;;;;;;;21.90;4.47;;;13.40;99.90;;;;;;4996917;28;20112;-73
2021/12/28 04:32:34;;;;;;;18.88;3.10;;;13.30;99.90;;;;;;5014772;28;20335;-73
2021/12/28 04:35:00;;;;;;;19.13;3.05;;;13.30;99.90;;;;;;5014601;28;20474;-73
2021/12/28 04:37:26;;;;;;;25.08;4.07;;;13.20;99.90;;;;;;5014641;28;20504;-73
2021/12/28 04:39:52;;;;;;;22.67;3.50;;;13.20;99.90;;;;;;4996991;28;20026;-73
2021/12/28 04:42:18;;;;;;;24.20;3.65;;;13.10;99.90;;;;;;5014734;28;20272;-73
2021/12/28 04:44:47;;;;;;;22.05;3.70;;;13.10;99.90;;;;;;5014691;28;20099;-73
2021/12/28 04:47:13;;;;;;;23.13;3.42;;;13.10;99.90;;;;;;5014558;28;20025;-74
2021/12/28 04:49:39;;;;;;;28.10;4.37;;;13.10;99.90;;;;;;5014495;28;20026;-73
2021/12/28 04:52:05;;;;;;;32.20;3.93;;;13.00;99.90;;;;;;5014349;28;20285;-73
2021/12/28 04:54:32;;;;;;;23.60;3.83;;;13.10;99.90;;;;;;4996906;28;20285;-74
2021/12/28 04:56:58;;;;;;;16.77;3.40;;;13.10;99.90;;;;;;5014642;28;20109;-73
2021/12/28 04:59:24;;;;;;;22.53;3.67;;;13.10;99.90;;;;;;5014457;28;20097;-73
2021/12/28 05:01:50;;;;;;;26.40;3.63;;;13.00;99.90;;;;;;5013983;28;20475;-74
2021/12/28 05:04:16;;;;;;;24.60;3.33;;;13.00;99.90;;;;;;5014041;28;20485;-73
2021/12/28 05:06:42;;;;;;;20.30;3.77;;;13.00;99.90;;;;;;5014327;28;20292;-73
2021/12/28 05:09:11;;;;;;;29.30;3.43;;;13.00;99.90;;;;;;5013897;28;20567;-73
2021/12/28 05:11:38;;;;;;;21.73;4.20;;;12.90;99.90;;;;;;4996154;28;20084;-71
2021/12/28 05:14:05;;;;;;;26.42;4.20;;;12.90;99.90;;;;;;5014215;28;20032;-74
2021/12/28 05:16:33;;;;;;;22.65;4.10;;;12.90;99.90;;;;;;5014365;28;20402;-73
2021/12/28 05:19:01;;;;;;;19.02;4.15;;;12.90;99.90;;;;;;5014100;28;20025;-74
2021/12/28 05:21:27;;;;;;;23.08;3.63;;;12.90;99.90;;;;;;5014291;28;20486;-73
2021/12/28 05:23:53;;;;;;;22.77;3.30;;;12.80;99.90;;;;;;5013722;28;20077;-73
2021/12/28 05:26:19;;;;;;;26.33;3.10;;;12.80;99.90;;;;;;5013803;28;20467;-73
2021/12/28 05:28:45;;;;;;;22.73;3.10;;;12.80;99.90;;;;;;5014109;28;20073;-72
2021/12/28 05:31:12;;;;;;;23.37;3.37;;;12.80;99.90;;;;;;5013145;28;20076;-72
2021/12/28 05:33:38;;;;;;;27.10;3.70;;;12.80;99.90;;;;;;5011983;28;20080;-73
2021/12/28 05:36:05;;;;;;;19.08;3.13;;;12.70;99.90;;;;;;4994288;28;20075;-72
2021/12/28 05:38:31;;;;;;;16.98;2.90;;;12.70;99.90;;;;;;5011543;28;20065;-73
2021/12/28 05:40:58;;;;;;;11.07;2.13;;;12.70;99.90;;;;;;5011048;28;20034;-71
2021/12/28 05:43:24;;;;;;;;;;;12.70;99.90;;;;;;5012407;28;20029;-74
2021/12/28 05:45:50;;;;;;;23.73;3.55;;;12.70;99.90;;;;;;5012785;28;19905;-73
2021/12/28 05:48:16;;;;;;;21.40;2.80;;;12.70;99.90;;;;;;4995545;28;20393;-72
2021/12/28 05:50:43;;;;;;;18.63;2.90;;;12.70;99.90;;;;;;5013580;28;20029;-73
2021/12/28 05:53:09;;;;;;;26.45;3.22;;;12.60;99.90;;;;;;5013239;28;20037;-73
2021/12/28 05:55:35;;;;;;;19.67;2.67;;;12.60;99.90;;;;;;5013208;28;20037;-73
2021/12/28 05:58:01;;;;;;;17.55;3.17;;;12.60;99.90;;;;;;4995421;28;20273;-72
2021/12/28 06:00:30;;;;;;;19.80;3.33;;;12.60;99.90;;;;;;5013179;28;20053;-70
2021/12/28 06:02:57;;;;;;;20.40;3.47;;;12.60;99.90;;;;;;5013289;28;20044;-70
2021/12/28 06:05:24;;;;;;;18.20;3.42;;;12.60;99.90;;;;;;5012695;28;20093;-71
2021/12/28 06:07:50;;;;;;;21.02;3.80;;;12.60;99.90;;;;;;5012654;28;20121;-71
2021/12/28 06:10:16;;;;;;;16.40;2.20;;;12.70;99.90;;;;;;5013050;28;20092;-71
2021/12/28 06:12:44;;;;;;;17.65;3.10;;;12.60;99.90;;;;;;4994851;28;20355;-70
2021/12/28 06:15:11;;;;;;;14.23;3.00;;;12.70;99.90;;;;;;5012903;28;20320;-70
2021/12/28 06:17:37;;;;;;;23.27;4.43;;;12.70;99.90;;;;;;5012865;28;20038;-71
2021/12/28 06:20:05;;;;;;;21.13;3.30;;;12.90;99.90;;;;;;5012762;28;20359;-72
2021/12/28 06:22:31;;;;;;;16.20;3.15;;;12.90;99.90;;;;;;5012255;28;20136;-70
2021/12/28 06:24:57;;;;;;;23.10;3.05;;;13.00;99.90;;;;;;5012639;28;20100;-71
2021/12/28 06:27:23;;;;;;;19.30;2.67;;;13.00;99.90;;;;;;5013011;28;20061;-71
2021/12/28 06:29:49;;;;;;;19.40;2.77;;;12.90;99.90;;;;;;5012661;28;20025;-71
2021/12/28 06:32:15;;;;;;;15.48;3.63;;;12.90;99.90;;;;;;5003292;28;20110;-71
2021/12/28 06:34:42;;;;;;;12.10;2.47;;;12.90;99.90;;;;;;4992676;28;20030;-70
2021/12/28 06:37:08;;;;;;;17.58;3.88;;;12.90;99.90;;;;;;4992515;28;20041;-71
2021/12/28 06:39:34;;;;;;;18.02;2.90;;;13.10;99.90;;;;;;4993010;28;20034;-71
2021/12/28 06:42:00;;;;;;;14.98;2.80;;;13.40;99.90;;;;;;4992915;28;20057;-72
2021/12/28 06:44:26;;;;;;;15.37;3.23;;;13.80;99.90;;;;;;4993395;28;20038;-82
2021/12/28 06:46:52;;;;;;;22.50;3.23;;;14.20;99.90;;;;;;4993139;28;20269;-72
2021/12/28 06:49:18;;;;;;;20.48;2.92;;;14.80;99.90;;;;;;4992294;28;20022;-72
2021/12/28 06:51:45;;;;;;;20.38;3.50;;;15.30;99.90;;;;;;5010193;28;20030;-71
2021/12/28 06:54:12;;;;;;;15.50;2.90;;;16.00;99.90;;;;;;5012393;28;20030;-70
2021/12/28 06:56:39;;;;;;;20.48;3.65;;;16.40;99.90;;;;;;5012249;28;20493;-72
2021/12/28 06:59:05;;;;;;;40.75;5.25;;;16.90;99.90;;;;;;5012104;28;20044;-71
2021/12/28 07:01:31;;;;;;;33.28;5.43;;;17.40;99.90;;;;;;5012371;28;20032;-72
2021/12/28 07:03:57;;;;;;;70.65;9.70;;;17.80;99.90;;;;;;5012237;28;20038;-69
2021/12/28 07:06:24;;;;;;;18.38;3.40;;;17.80;99.90;;;;;;5011982;28;20037;-71
2021/12/28 07:08:50;;;;;;;46.28;6.75;;;18.10;99.90;;;;;;5012077;28;20071;-77
2021/12/28 07:11:17;;;;;;;108.95;12.77;;;18.60;99.90;;;;;;5012160;28;20030;-72
2021/12/28 07:13:43;;;;;;;;;;;18.80;99.90;;;;;;5012527;28;20044;-73
2021/12/28 07:16:11;;;;;;;216.95;24.10;;;19.10;99.90;;;;;;5012323;28;19905;-73
2021/12/28 07:18:37;;;;;;;183.98;22.40;;;19.80;99.90;;;;;;5011777;28;20394;-76
2021/12/28 07:21:03;;;;;;;33.53;5.88;;;20.20;99.90;;;;;;5011829;28;20037;-76
2021/12/28 07:23:30;;;;;;;33.58;4.47;;;20.40;99.90;;;;;;5011702;28;20050;-76
2021/12/28 07:25:56;;;;;;;31.50;4.07;;;20.70;99.90;;;;;;5011521;28;20097;-75
2021/12/28 07:28:24;;;;;;;21.50;3.95;;;20.10;99.90;;;;;;5011435;28;20029;-74
2021/12/28 07:30:51;;;;;;;21.63;4.32;;;21.10;99.90;;;;;;5011637;28;20044;-73
2021/12/28 07:33:17;;;;;;;86.20;11.77;;;21.60;99.90;;;;;;5012041;28;20046;-74
2021/12/28 07:35:43;;;;;;;57.83;8.52;;;21.70;99.90;;;;;;4993917;28;20038;-74
2021/12/28 07:38:10;;;;;;;32.53;4.70;;;22.00;99.90;;;;;;5011948;28;20367;-74
2021/12/28 07:40:36;;;;;;;71.93;9.63;;;22.10;99.90;;;;;;5012183;28;20088;-76
2021/12/28 07:43:02;;;;;;;;;;;22.50;99.90;;;;;;5012552;28;20032;-75
2021/12/28 07:45:28;;;;;;;;;;;23.10;99.90;;;;;;5012607;28;19972;-75
2021/12/28 07:47:55;;;;;;;21.08;4.57;;;22.90;99.90;;;;;;5011826;28;19905;-76
2021/12/28 07:50:21;;;;;;;18.80;3.45;;;22.50;99.90;;;;;;5011681;28;20438;-76
2021/12/28 07:52:48;;;;;;;14.57;2.92;;;21.80;99.90;;;;;;5011387;28;20517;-76
2021/12/28 07:55:15;;;;;;;19.30;3.10;;;20.90;99.90;;;;;;5011940;28;20022;-77
2021/12/28 07:57:42;;;;;;;35.65;4.85;;;19.40;99.90;;;;;;5011511;28;20095;-76
2021/12/28 08:00:15;;;;;;;22.98;3.67;;;18.40;99.90;;;;;;4993593;28;20406;-76
2021/12/28 08:02:43;;;;;;;28.77;3.88;;;17.70;99.90;;;;;;5014785;28;20041;-75
2021/12/28 08:05:10;;;;;;;47.22;6.28;;;17.60;99.90;;;;;;5015647;28;20060;-75
2021/12/28 08:07:36;;;;;;;41.53;5.30;;;17.50;99.90;;;;;;5015305;28;20029;-75
2021/12/28 08:10:04;;;;;;;49.55;6.20;;;17.50;99.90;;;;;;5015271;28;20018;-75
2021/12/28 08:12:30;;;;;;;15.70;2.60;;;17.30;99.90;;;;;;5015356;28;20493;-76
2021/12/28 08:14:57;;;;;;;17.67;3.20;;;17.40;99.90;;;;;;5015795;28;20021;-75
2021/12/28 08:17:23;;;;;;;50.95;7.00;;;17.60;99.90;;;;;;5015613;28;20485;-75
2021/12/28 08:19:49;;;;;;;27.98;4.60;;;17.60;99.90;;;;;;5015241;28;20030;-74
2021/12/28 08:22:15;;;;;;;17.83;3.45;;;17.70;99.90;;;;;;5014924;28;20046;-75
2021/12/28 08:24:41;;;;;;;22.88;3.75;;;17.70;99.90;;;;;;5015292;28;20108;-74
2021/12/28 08:27:07;;;;;;;20.25;3.60;;;17.70;99.90;;;;;;5014911;28;20030;-74
2021/12/28 08:29:33;;;;;;;24.88;4.40;;;17.50;99.90;;;;;;4997439;28;20022;-74
2021/12/28 08:31:59;;;;;;;27.15;4.45;;;17.60;99.90;;;;;;5015016;28;20482;-74
2021/12/28 08:34:25;;;;;;;22.92;4.05;;;17.60;99.90;;;;;;5015061;28;20072;-74
2021/12/28 08:36:51;;;;;;;59.25;7.65;;;17.50;99.90;;;;;;5014770;28;20024;-73
2021/12/28 08:39:17;;;;;;;63.28;10.15;;;17.60;99.90;;;;;;5015169;28;20366;-74
2021/12/28 08:41:44;;;;;;;53.97;7.57;;;17.70;99.90;;;;;;5014848;28;20029;-74
2021/12/28 08:44:10;;;;;;;45.50;7.25;;;17.90;99.90;;;;;;4997473;28;20443;-75
2021/12/28 08:46:37;;;;;;;26.30;4.93;;;17.90;99.90;;;;;;5014661;28;20033;-74
2021/12/28 08:49:04;;;;;;;31.15;7.47;;;18.00;99.90;;;;;;5014716;28;20550;-74
2021/12/28 08:51:30;;;;;;;19.38;5.03;;;17.80;99.90;;;;;;5014898;28;20041;-74
2021/12/28 08:53:57;;;;;;;26.40;5.00;;;17.60;99.90;;;;;;5014434;28;20164;-74
2021/12/28 08:56:23;;;;;;;43.33;6.53;;;17.50;99.90;;;;;;5014717;28;20105;-74
2021/12/28 08:58:51;;;;;;;20.05;3.30;;;17.50;99.90;;;;;;5014363;28;20104;-74
2021/12/28 09:01:17;;;;;;;36.33;4.65;;;17.40;99.90;;;;;;5014431;28;20133;-73
2021/12/28 09:03:44;;;;;;;20.58;4.05;;;17.30;99.90;;;;;;5014208;28;20088;-74
2021/12/28 09:06:10;;;;;;;20.77;3.38;;;17.20;99.90;;;;;;5014365;28;20156;-74
2021/12/28 09:08:36;;;;;;;20.50;3.08;;;17.00;99.90;;;;;;5014336;28;20022;-74
2021/12/28 09:11:02;;;;;;;18.65;2.75;;;17.10;99.90;;;;;;5013628;28;20101;-74
2021/12/28 09:13:28;;;;;;;17.20;3.00;;;17.30;99.90;;;;;;5013420;28;20064;-74
2021/12/28 09:15:54;;;;;;;24.50;3.75;;;17.50;99.90;;;;;;5014055;28;20044;-75
2021/12/28 09:18:20;;;;;;;18.23;2.72;;;17.30;99.90;;;;;;5013915;28;20030;-76
2021/12/28 09:20:46;;;;;;;17.08;3.40;;;17.20;99.90;;;;;;5014309;28;20319;-74
2021/12/28 09:23:13;;;;;;;14.82;2.83;;;16.80;99.90;;;;;;5013644;28;20152;-75
2021/12/28 09:25:39;;;;;;;;;;;17.00;99.90;;;;;;4996894;28;20071;-74
2021/12/28 09:28:07;;;;;;;20.90;3.00;;;17.00;99.90;;;;;;5014344;28;19905;-73
2021/12/28 09:30:33;;;;;;;17.23;3.15;;;17.00;99.90;;;;;;5013635;28;20029;-75
2021/12/28 09:33:00;;;;;;;18.08;3.10;;;17.00;99.90;;;;;;5013977;28;20082;-73
2021/12/28 09:35:26;;;;;;;23.30;4.65;;;17.10;99.90;;;;;;5014269;28;20026;-74
2021/12/28 09:37:52;;;;;;;24.65;4.40;;;17.40;99.90;;;;;;4996668;28;20030;-75
2021/12/28 09:40:18;;;;;;;19.42;3.65;;;17.70;99.90;;;;;;4994024;28;20080;-74
2021/12/28 09:42:44;;;;;;;17.80;3.53;;;17.80;99.90;;;;;;4994155;28;20109;-75
2021/12/28 09:45:23;;;;;;;19.17;3.08;;;17.90;99.90;;;;;;4994048;28;20026;-75
2021/12/28 09:47:49;;;;;;;15.90;3.80;;;17.70;99.90;;;;;;4994186;28;20030;-73
2021/12/28 09:50:16;;;;;;;21.77;4.53;;;17.90;99.90;;;;;;4993706;28;20022;-74
2021/12/28 09:52:49;;;;;;;47.08;7.60;;;18.00;99.90;;;;;;4993656;28;20109;-73
2021/12/28 09:55:18;;;;;;;54.05;10.77;;;18.10;99.90;;;;;;4999261;28;20541;-73
2021/12/28 09:57:45;;;;;;;26.10;6.43;;;18.20;99.90;;;;;;5004031;28;20023;-73
2021/12/28 10:00:13;;;;;;;43.95;9.52;;;18.30;99.90;;;;;;5006098;28;20378;-73
2021/12/28 10:02:39;;;;;;;28.63;6.68;;;18.40;99.90;;;;;;5013367;28;20061;-75
2021/12/28 10:05:18;;;;;;;20.90;4.85;;;18.40;99.90;;;;;;5013699;28;20026;-74
2021/12/28 10:08:04;;;;;;;24.30;4.22;;;18.50;99.90;;;;;;5013444;28;20034;-75
2021/12/28 10:10:33;;;;;;;;;;;18.50;99.90;;;;;;4995709;28;20100;-73
2021/12/28 10:13:06;;;;;;;108.88;14.30;;;18.60;99.90;;;;;;4995038;28;19920;-74
2021/12/28 10:15:36;;;;;;;62.20;7.07;;;18.70;99.90;;;;;;5013246;28;20112;-74
2021/12/28 10:18:09;;;;;;;69.00;8.95;;;18.70;99.90;;;;;;5013530;28;20084;-74
2021/12/28 10:20:50;;;;;;;28.75;4.03;;;18.50;99.90;;;;;;5012832;28;20032;-74
2021/12/28 10:23:20;;;;;;;17.23;2.95;;;18.40;99.90;;;;;;5012636;28;20042;-74
2021/12/28 10:25:56;;;;;;;12.35;2.72;;;18.60;99.90;;;;;;5012964;28;20379;-74
2021/12/28 10:28:32;;;;;;;11.90;2.35;;;18.70;99.90;;;;;;5012831;28;20034;-74
2021/12/28 10:31:07;;;;;;;15.65;4.18;;;18.70;99.90;;;;;;5012760;28;20026;-71
2021/12/28 10:33:37;;;;;;;25.00;3.88;;;18.80;99.90;;;;;;5012953;28;20034;-76
2021/12/28 10:36:08;;;;;;;13.05;3.38;;;18.70;99.90;;;;;;5012770;28;20072;-74
2021/12/28 10:38:39;;;;;;;16.85;4.10;;;18.70;99.90;;;;;;5012725;28;20113;-74
2021/12/28 10:41:10;;;;;;;43.28;6.28;;;18.90;99.90;;;;;;5013104;28;20101;-74
2021/12/28 10:43:39;;;;;;;65.78;8.93;;;18.90;99.90;;;;;;5012785;28;20100;-73
2021/12/28 10:46:11;;;;;;;56.35;8.18;;;18.80;99.90;;;;;;5012738;28;20065;-73
2021/12/28 10:48:42;;;;;;;33.63;6.20;;;19.00;99.90;;;;;;5012331;28;20030;-77
2021/12/28 10:51:20;;;;;;;25.33;5.93;;;18.90;99.90;;;;;;5012498;28;20014;-76
2021/12/28 10:56:34;;;;;;;55.85;9.38;;;19.40;99.90;;;;;;5012278;28;20024;-77
2021/12/28 10:59:00;;;;;;;28.48;8.15;;;19.20;99.90;;;;;;4994646;28;20044;-77
2021/12/28 11:01:29;;;;;;;137.82;19.25;;;19.20;99.90;;;;;;4994844;28;20026;-78
2021/12/28 11:04:00;;;;;;;95.45;14.52;;;19.40;99.90;;;;;;4994755;28;20056;-78
2021/12/28 11:06:35;;;;;;;34.10;11.38;;;19.40;99.90;;;;;;5012653;28;20077;-78
2021/12/28 11:09:15;;;;;;;30.83;6.65;;;19.20;99.90;;;;;;4995358;28;20034;-76
2021/12/28 11:11:42;;;;;;;22.55;4.65;;;19.00;99.90;;;;;;4992488;28;20483;-77
2021/12/28 11:14:13;;;;;;;71.05;9.23;;;19.10;99.90;;;;;;4992637;28;20108;-77
2021/12/28 11:16:40;;;;;;;47.85;7.28;;;19.30;99.90;;;;;;4992984;28;20447;-77
2021/12/28 11:19:13;;;;;;;30.33;4.70;;;19.30;99.90;;;;;;4992760;28;20038;-77
2021/12/28 11:21:51;;;;;;;61.90;7.80;;;19.30;99.90;;;;;;4993392;28;20505;-77
2021/12/28 11:24:17;;;;;;;27.92;4.57;;;19.30;99.90;;;;;;5012203;28;20030;-77
2021/12/28 11:26:47;;;;;;;44.08;5.20;;;19.10;99.90;;;;;;5011912;28;20429;-77
2021/12/28 11:29:21;;;;;;;65.13;8.95;;;19.10;99.90;;;;;;5012018;28;20118;-77
2021/12/28 11:31:50;;;;;;;25.15;4.50;;;19.00;99.90;;;;;;4994233;28;20033;-77
2021/12/28 11:34:27;;;;;;;39.90;6.45;;;19.00;99.90;;;;;;5012367;28;20113;-77
2021/12/28 11:37:02;;;;;;;181.38;21.45;;;19.10;99.90;;;;;;5014635;28;20014;-78
2021/12/28 11:39:33;;;;;;;52.85;7.43;;;19.20;99.90;;;;;;5016095;28;20478;-76
2021/12/28 11:42:01;;;;;;;30.00;6.47;;;19.30;99.90;;;;;;5015818;28;20022;-76
2021/12/28 11:44:29;;;;;;;141.45;17.83;;;19.30;99.90;;;;;;4998428;28;20040;-76
2021/12/28 11:46:58;;;;;;;58.38;8.57;;;19.00;99.90;;;;;;5015745;28;20088;-76
2021/12/28 11:49:28;;;;;;;76.78;9.98;;;18.90;99.90;;;;;;4998043;28;20022;-77
2021/12/28 11:51:58;;;;;;;32.92;5.25;;;18.60;99.90;;;;;;5015539;28;20100;-72
2021/12/28 11:54:26;;;;;;;18.45;3.50;;;18.50;99.90;;;;;;5015579;28;20109;-76
2021/12/28 11:57:00;;;;;;;23.70;3.25;;;18.40;99.90;;;;;;5015415;28;20033;-77
2021/12/28 11:59:30;;;;;;;18.67;3.28;;;18.40;99.90;;;;;;5015475;28;20095;-76
2021/12/28 12:01:58;;;;;;;16.85;2.90;;;18.50;99.90;;;;;;5015409;28;20014;-78
2021/12/28 12:04:33;;;;;;;23.38;3.78;;;18.50;99.90;;;;;;5015720;28;20034;-76
2021/12/28 12:07:14;;;;;;;18.35;2.63;;;18.50;99.90;;;;;;5015157;28;20030;-75
2021/12/28 12:10:14;;;;;;;18.75;2.75;;;18.40;99.90;;;;;;5015387;28;20047;-76
2021/12/28 12:12:43;;;;;;;13.43;2.78;;;18.40;99.90;;;;;;5015890;28;20064;-76
2021/12/28 12:15:13;;;;;;;12.95;2.45;;;18.20;99.90;;;;;;5015143;28;20030;-76
2021/12/28 12:17:41;;;;;;;13.45;2.38;;;18.10;99.90;;;;;;5014901;28;20038;-76
2021/12/28 12:20:22;;;;;;;14.20;2.50;;;18.00;99.90;;;;;;5014820;28;20037;-76
2021/12/28 12:22:55;;;;;;;18.33;2.58;;;17.90;99.90;;;;;;5014699;28;20061;-75
2021/12/28 12:25:29;;;;;;;16.17;2.83;;;17.90;99.90;;;;;;5014958;28;20447;-76
2021/12/28 12:27:59;;;;;;;12.75;2.33;;;17.70;99.90;;;;;;5014872;28;20090;-76
2021/12/28 12:30:28;;;;;;;13.85;2.45;;;17.70;99.90;;;;;;5014571;28;20106;-76
2021/12/28 12:33:07;;;;;;;15.85;2.75;;;17.80;99.90;;;;;;4996688;28;20114;-76
2021/12/28 12:35:50;;;;;;;18.23;2.58;;;17.80;99.90;;;;;;5014965;28;20068;-76
2021/12/28 12:38:16;;;;;;;15.82;2.83;;;17.90;99.90;;;;;;5014715;28;20030;-77
2021/12/28 12:41:06;;;;;;;12.82;2.33;;;17.70;99.90;;;;;;5014437;28;20036;-77
2021/12/28 12:43:38;;;;;;;25.58;2.70;;;17.60;99.90;;;;;;5015143;28;20029;-76
2021/12/28 12:46:09;;;;;;;13.50;2.05;;;17.60;99.90;;;;;;5014590;28;20415;-76
2021/12/28 12:48:35;;;;;;;16.48;2.80;;;17.60;99.90;;;;;;5013168;28;20064;-78
2021/12/28 12:51:22;;;;;;;17.38;2.90;;;17.70;99.90;;;;;;5014022;28;20112;-76